Friendship, WI (53934)

5:22 PM CDT on August 28, 2015 (GMT -0500)
Necedah Township | | Change Station
CLOSE
Current Station
Personal Weather Station
Location: Necedah, WI
Elevation: 890 ft
Nearby Weather Stations

Elev 890 ft 44.00 °N, 89.99 °W | Updated 22 seconds ago

Rain
Rain
63.9 °F
Feels Like 63.9 °F
N
0.0
Wind Variable Wind from SE
Gusts 2.0 mph

Today
High -- | Low -- °F
--% Chance of Precip.
Yesterday
High -- | Low -- °F
Precip. -- in
6:17 AM 7:42 PM
Waxing Gibbous, 99% visible
Pressure 30.07 in
Visibility 3.0 miles
Clouds Overcast 4400 ft
Dew Point 64 °F
Humidity 100%
Rainfall 0.14 in
Snow Depth Not available.
UV 1 out of 12
Pollen 5.00 out of 12
Air Quality Not available.
Flu Activity Not available.
METAR KVOK 282158Z 15003KT 3SM RA BR OVC044 16/16 A3006 RMK AO2A SLP183
Pressure 30.07 in
Visibility 3.0 miles
Clouds Overcast 4400 ft
Dew Point 64 °F
Humidity 100%
Rainfall 0.14 in
Snow Depth Not available.
UV 1 out of 12
Pollen 5.00 out of 12
Air Quality Not available.
Flu Activity Not available.
METAR KVOK 282158Z 15003KT 3SM RA BR OVC044 16/16 A3006 RMK AO2A SLP183

10-Day Weather Forecast

×

Almanac

Astronomy

Aug. 28, 2015 Rise Set
Actual Time
Civil Twilight
Nautical Twilight
Astronomical Twilight
Moon
Length of Visible Light
Length of Day
Tomorrow will be .
, % of the Moon is Illuminated

Today's Extremes

State Highs State Lows

Community

WunderPhotos

Upload Photos

1,850,515 photos uploaded!

WunderBlogs® & News

Nearby

Air Quality

  Air Quality AQ Index Pollutant
Not available.

Snow Depth

Station Depth Elevation

Earthquake Activity

City Distance Mag. Time & Date
Minimum magnitude displayed is 2.5.

Coastal Water Temperatures

Place Temperature

Stations

Nearby Weather Stations

Station Location Temp. Windchill Dew Point Humidity Wind Precip. Elev Updated Type